Time;durP1;ratioP1;P1;durP2;ratioP2;P2;SDS_P1;SDS_P2;PMS_P1;PMS_P2;Temp;Humidity;BMP_temperature;BMP_pressure;BME280_temperature;BME280_humidity;BME280_pressure;Samples;Min_cycle;Max_cycle;Signal;HPM_P1;HPM_P2
2021/10/05 00:00:54;;;;;;;1.67;1.57;;;10.80;99.90;;;;;;476860;245;28174;-75
2021/10/05 00:02:55;;;;;;;2.50;1.37;;;10.90;99.90;;;;;;476951;249;27891;-76
2021/10/05 00:04:57;;;;;;;1.50;1.40;;;10.90;99.90;;;;;;476957;249;28000;-75
2021/10/05 00:06:58;;;;;;;1.47;1.43;;;10.90;99.90;;;;;;476977;249;28207;-75
2021/10/05 00:09:01;;;;;;;1.70;1.60;;;10.90;99.90;;;;;;476931;249;28135;-75
2021/10/05 00:11:01;;;;;;;1.20;1.20;;;10.90;99.90;;;;;;476854;249;28147;-75
2021/10/05 00:13:02;;;;;;;1.30;1.30;;;10.90;99.90;;;;;;476969;249;28070;-75
2021/10/05 00:15:03;;;;;;;1.53;1.47;;;11.00;99.90;;;;;;476958;249;28135;-75
2021/10/05 00:17:04;;;;;;;1.10;1.10;;;10.90;99.90;;;;;;477004;249;28647;-75
2021/10/05 00:19:06;;;;;;;1.57;1.47;;;10.90;99.90;;;;;;476996;249;28430;-75
2021/10/05 00:21:07;;;;;;;1.47;1.40;;;11.00;99.90;;;;;;477005;249;28501;-75
2021/10/05 00:23:08;;;;;;;1.40;1.30;;;11.00;99.90;;;;;;477004;249;28421;-75
2021/10/05 00:25:09;;;;;;;2.40;1.50;;;11.00;99.90;;;;;;476964;249;27845;-76
2021/10/05 00:27:11;;;;;;;1.20;1.20;;;11.00;99.90;;;;;;476984;249;27696;-76
2021/10/05 00:29:12;;;;;;;1.10;1.10;;;11.00;99.90;;;;;;476984;249;27978;-75
2021/10/05 00:31:13;;;;;;;1.50;1.50;;;11.00;99.90;;;;;;476966;249;27883;-75
2021/10/05 00:33:14;;;;;;;1.90;1.33;;;11.00;99.90;;;;;;476981;249;27792;-75
2021/10/05 00:35:16;;;;;;;1.53;1.43;;;11.00;99.90;;;;;;476955;249;27875;-75
2021/10/05 00:37:17;;;;;;;1.30;1.20;;;11.00;99.90;;;;;;476979;249;27991;-75
2021/10/05 00:39:18;;;;;;;1.30;1.30;;;11.00;99.90;;;;;;476956;249;28053;-75
2021/10/05 00:41:19;;;;;;;1.50;1.40;;;10.90;99.90;;;;;;476965;249;28026;-75
2021/10/05 00:43:21;;;;;;;1.47;1.40;;;10.90;99.90;;;;;;476925;245;28351;-76
2021/10/05 00:45:22;;;;;;;1.30;1.30;;;10.90;99.90;;;;;;477031;249;28412;-75
2021/10/05 00:47:23;;;;;;;1.20;1.20;;;10.90;99.90;;;;;;477015;249;28386;-76
2021/10/05 00:49:24;;;;;;;1.30;1.30;;;10.90;99.90;;;;;;476970;249;27859;-75
2021/10/05 00:51:26;;;;;;;1.37;1.30;;;10.90;99.90;;;;;;477043;249;28000;-74
2021/10/05 00:53:27;;;;;;;1.50;1.40;;;10.90;99.90;;;;;;476960;249;27960;-76
2021/10/05 00:55:29;;;;;;;1.30;1.20;;;10.90;99.90;;;;;;476984;249;27883;-76
2021/10/05 00:57:29;;;;;;;1.23;1.20;;;11.00;99.90;;;;;;476934;249;27991;-76
2021/10/05 00:59:33;;;;;;;1.17;1.10;;;11.00;99.90;;;;;;476980;249;27908;-75
2021/10/05 01:01:32;;;;;;;1.50;1.10;;;11.00;99.90;;;;;;476815;249;27897;-76
2021/10/05 01:03:33;;;;;;;1.17;1.17;;;11.00;99.90;;;;;;476981;249;28144;-75
2021/10/05 01:05:34;;;;;;;1.10;1.10;;;11.00;99.90;;;;;;476954;249;28064;-76
2021/10/05 01:07:36;;;;;;;1.20;1.20;;;11.00;99.90;;;;;;476967;249;28460;-75
2021/10/05 01:09:37;;;;;;;1.10;1.10;;;10.90;99.90;;;;;;476977;249;28517;-75
2021/10/05 01:11:38;;;;;;;1.40;1.30;;;10.80;99.90;;;;;;476954;249;28276;-74
2021/10/05 01:13:39;;;;;;;1.20;1.20;;;10.70;99.90;;;;;;476964;249;27999;-76
2021/10/05 01:15:41;;;;;;;1.00;1.00;;;10.70;99.90;;;;;;476973;249;27784;-76
2021/10/05 01:17:42;;;;;;;1.10;1.10;;;10.70;99.90;;;;;;476976;249;27905;-75
2021/10/05 01:19:43;;;;;;;1.37;1.30;;;10.80;99.90;;;;;;476956;249;28075;-76
2021/10/05 01:21:44;;;;;;;1.17;1.17;;;10.80;99.90;;;;;;476909;249;28128;-76
2021/10/05 01:23:46;;;;;;;1.30;1.30;;;10.80;99.90;;;;;;476938;249;28146;-76
2021/10/05 01:25:47;;;;;;;1.20;1.20;;;10.80;99.90;;;;;;476968;249;28056;-76
2021/10/05 01:27:48;;;;;;;1.50;1.40;;;10.80;99.90;;;;;;476957;249;28012;-75
2021/10/05 01:29:49;;;;;;;1.27;1.23;;;10.90;99.90;;;;;;476945;249;28183;-75
2021/10/05 01:31:51;;;;;;;1.10;1.10;;;10.90;99.90;;;;;;477147;249;28214;-74
2021/10/05 01:33:52;;;;;;;1.63;1.30;;;10.90;99.90;;;;;;476845;245;28696;-75
2021/10/05 01:35:53;;;;;;;1.20;1.20;;;10.90;99.90;;;;;;476891;249;28444;-75
2021/10/05 01:37:54;;;;;;;1.17;1.17;;;10.90;99.90;;;;;;476946;249;27884;-75
2021/10/05 01:39:56;;;;;;;1.20;1.20;;;10.90;99.90;;;;;;477026;249;27899;-74
2021/10/05 01:41:57;;;;;;;1.20;1.20;;;10.90;99.90;;;;;;476946;249;28020;-74
2021/10/05 01:43:58;;;;;;;1.40;1.30;;;10.90;99.90;;;;;;476952;249;27978;-76
2021/10/05 01:45:59;;;;;;;1.33;1.30;;;10.90;99.90;;;;;;476965;249;27988;-76
2021/10/05 01:48:01;;;;;;;1.37;1.37;;;10.90;99.90;;;;;;476956;249;27784;-75
2021/10/05 01:50:02;;;;;;;1.20;1.20;;;11.00;99.90;;;;;;476971;249;28420;-76
2021/10/05 01:52:03;;;;;;;1.20;1.20;;;11.00;99.90;;;;;;476922;249;28301;-76
2021/10/05 01:54:04;;;;;;;1.20;1.20;;;11.00;99.90;;;;;;476978;249;28020;-76
2021/10/05 01:56:06;;;;;;;1.30;1.30;;;11.00;99.90;;;;;;476963;249;28462;-75
2021/10/05 01:58:07;;;;;;;1.23;1.20;;;11.00;99.90;;;;;;476967;249;28478;-76
2021/10/05 02:00:08;;;;;;;1.30;1.20;;;11.00;99.90;;;;;;477061;249;28594;-75
2021/10/05 02:02:09;;;;;;;1.20;1.20;;;11.00;99.90;;;;;;477003;249;28559;-75
2021/10/05 02:04:11;;;;;;;1.30;1.20;;;11.00;99.90;;;;;;476985;249;28150;-75
2021/10/05 02:06:12;;;;;;;1.10;1.10;;;11.00;99.90;;;;;;476985;249;27956;-75
2021/10/05 02:08:13;;;;;;;1.40;1.30;;;11.00;99.90;;;;;;477062;249;27980;-74
2021/10/05 02:10:15;;;;;;;1.60;1.50;;;11.00;99.90;;;;;;476981;249;28165;-74
2021/10/05 02:12:16;;;;;;;1.37;1.27;;;11.00;99.90;;;;;;477052;249;28047;-74
2021/10/05 02:14:17;;;;;;;1.20;1.20;;;10.90;99.90;;;;;;477051;249;28069;-76
2021/10/05 02:16:18;;;;;;;1.37;1.27;;;10.90;99.90;;;;;;476971;249;27846;-75
2021/10/05 02:18:19;;;;;;;1.33;1.27;;;10.90;99.90;;;;;;476945;249;28008;-75
2021/10/05 02:20:21;;;;;;;1.37;1.37;;;10.80;99.90;;;;;;476963;249;28863;-76
2021/10/05 02:22:22;;;;;;;1.60;1.50;;;10.70;99.90;;;;;;478523;237;28458;-75
2021/10/05 02:26:24;;;;;;;1.50;1.37;;;10.70;99.90;;;;;;480192;248;29169;-76
2021/10/05 02:28:26;;;;;;;4.30;1.50;;;10.70;99.90;;;;;;480165;248;27964;-76
2021/10/05 02:30:27;;;;;;;1.17;1.17;;;10.70;99.90;;;;;;480184;248;27915;-76
2021/10/05 02:32:28;;;;;;;1.70;1.60;;;10.70;99.90;;;;;;480177;248;27960;-76
2021/10/05 02:34:29;;;;;;;2.00;1.40;;;10.70;99.90;;;;;;480180;248;27851;-76
2021/10/05 02:36:31;;;;;;;1.23;1.20;;;10.70;99.90;;;;;;480172;248;27921;-76
2021/10/05 02:38:32;;;;;;;1.20;1.20;;;10.70;99.90;;;;;;480205;248;27839;-76
2021/10/05 02:40:33;;;;;;;1.50;1.40;;;10.70;99.90;;;;;;480223;248;27914;-75
2021/10/05 02:42:34;;;;;;;1.53;1.43;;;10.80;99.90;;;;;;480219;248;28073;-76
2021/10/05 02:44:36;;;;;;;1.40;1.40;;;10.70;99.90;;;;;;480193;248;27565;-76
2021/10/05 02:46:37;;;;;;;1.40;1.30;;;10.60;99.90;;;;;;480191;248;28579;-76
2021/10/05 02:48:38;;;;;;;1.57;1.47;;;10.50;99.90;;;;;;480224;248;28399;-76
2021/10/05 02:50:39;;;;;;;1.27;1.27;;;10.50;99.90;;;;;;480173;248;28459;-76
2021/10/05 02:52:41;;;;;;;1.20;1.20;;;10.60;99.90;;;;;;480193;248;27893;-76
2021/10/05 02:54:42;;;;;;;1.40;1.40;;;10.60;99.90;;;;;;480154;248;28018;-76
2021/10/05 02:56:43;;;;;;;1.20;1.10;;;10.70;99.90;;;;;;480202;248;27799;-76
2021/10/05 02:58:44;;;;;;;1.37;1.30;;;10.60;99.90;;;;;;480184;248;27927;-76
2021/10/05 03:00:46;;;;;;;1.10;1.10;;;10.60;99.90;;;;;;480162;248;28004;-76
2021/10/05 03:02:47;;;;;;;1.20;1.20;;;10.50;99.90;;;;;;480171;248;27961;-76
2021/10/05 03:04:48;;;;;;;1.30;1.30;;;10.50;99.90;;;;;;480164;248;27923;-75
2021/10/05 03:06:49;;;;;;;1.40;1.30;;;10.60;99.90;;;;;;480135;248;27876;-75
2021/10/05 03:08:54;;;;;;;1.13;1.13;;;10.60;99.90;;;;;;480189;248;28016;-75
2021/10/05 03:10:52;;;;;;;1.10;1.10;;;10.60;99.90;;;;;;480112;248;28374;-76
2021/10/05 03:12:53;;;;;;;1.50;1.40;;;10.50;99.90;;;;;;480138;248;28122;-75
2021/10/05 03:14:54;;;;;;;1.37;1.30;;;10.60;99.90;;;;;;480173;248;28207;-75
2021/10/05 03:16:56;;;;;;;1.47;1.37;;;10.60;99.90;;;;;;480173;248;27909;-76
2021/10/05 03:18:57;;;;;;;1.40;1.40;;;10.60;99.90;;;;;;480186;248;27945;-75
2021/10/05 03:20:58;;;;;;;1.60;1.50;;;10.60;99.90;;;;;;480165;248;28118;-75
2021/10/05 03:22:59;;;;;;;1.27;1.27;;;10.60;99.90;;;;;;480231;247;27876;-75
2021/10/05 03:25:01;;;;;;;1.50;1.40;;;10.60;99.90;;;;;;476295;250;27939;-75
2021/10/05 03:27:02;;;;;;;1.50;1.50;;;10.60;99.90;;;;;;473315;251;27895;-75
2021/10/05 03:29:03;;;;;;;1.30;1.30;;;10.60;99.90;;;;;;473298;250;28048;-75
2021/10/05 03:31:04;;;;;;;1.80;1.70;;;10.60;99.90;;;;;;473340;250;27972;-76
2021/10/05 03:33:06;;;;;;;1.30;1.30;;;10.60;99.90;;;;;;473375;250;28058;-75
2021/10/05 03:35:07;;;;;;;1.50;1.40;;;10.70;99.90;;;;;;473306;250;28477;-75
2021/10/05 03:37:08;;;;;;;1.43;1.40;;;10.60;99.90;;;;;;473371;250;28130;-75
2021/10/05 03:39:09;;;;;;;1.60;1.50;;;10.60;99.90;;;;;;473319;250;28566;-75
2021/10/05 03:41:11;;;;;;;1.30;1.30;;;10.50;99.90;;;;;;473336;250;28131;-75
2021/10/05 03:43:12;;;;;;;1.60;1.50;;;10.50;99.90;;;;;;473337;251;28006;-75
2021/10/05 03:45:13;;;;;;;1.73;1.63;;;10.50;99.90;;;;;;473316;250;28117;-76
2021/10/05 03:47:14;;;;;;;1.50;1.40;;;10.40;99.90;;;;;;473334;250;27782;-75
2021/10/05 03:49:16;;;;;;;1.40;1.40;;;10.50;99.90;;;;;;473333;250;27939;-75
2021/10/05 03:51:17;;;;;;;1.37;1.37;;;10.50;99.90;;;;;;473288;250;28017;-75
2021/10/05 03:53:19;;;;;;;1.47;1.37;;;10.50;99.90;;;;;;473334;251;28424;-74
2021/10/05 03:55:19;;;;;;;1.87;1.77;;;10.50;99.90;;;;;;473206;251;27887;-75
2021/10/05 03:57:21;;;;;;;1.83;1.73;;;10.50;99.90;;;;;;473286;250;27994;-74
2021/10/05 03:59:22;;;;;;;2.07;1.90;;;10.50;99.90;;;;;;473282;250;28576;-76
2021/10/05 04:01:23;;;;;;;1.57;1.47;;;10.50;99.90;;;;;;473257;251;28519;-76
2021/10/05 04:03:24;;;;;;;1.70;1.60;;;10.60;99.90;;;;;;473312;250;28536;-76
2021/10/05 04:05:26;;;;;;;1.80;1.70;;;10.60;99.90;;;;;;473271;251;28064;-76
2021/10/05 04:07:27;;;;;;;1.80;1.70;;;10.60;99.90;;;;;;473314;250;27987;-76
2021/10/05 04:09:28;;;;;;;1.70;1.60;;;10.60;99.90;;;;;;473295;250;27975;-76
2021/10/05 04:11:29;;;;;;;1.80;1.70;;;10.60;99.90;;;;;;473282;250;27914;-76
2021/10/05 04:13:31;;;;;;;1.80;1.70;;;10.60;99.90;;;;;;473434;250;28017;-76
2021/10/05 04:15:32;;;;;;;1.63;1.53;;;10.70;99.90;;;;;;473499;250;28138;-76
2021/10/05 04:17:33;;;;;;;2.13;2.03;;;10.60;99.90;;;;;;473609;250;27845;-76
2021/10/05 04:19:34;;;;;;;1.70;1.60;;;10.60;99.90;;;;;;473570;250;27938;-76
2021/10/05 04:21:36;;;;;;;1.80;1.70;;;10.60;99.90;;;;;;473545;250;27766;-76
2021/10/05 04:23:37;;;;;;;2.10;2.00;;;10.50;99.90;;;;;;473586;250;28355;-77
2021/10/05 04:25:38;;;;;;;1.90;1.80;;;10.50;99.90;;;;;;473574;250;28569;-76
2021/10/05 04:27:39;;;;;;;2.50;2.30;;;10.50;99.90;;;;;;473428;250;28326;-76
2021/10/05 04:29:41;;;;;;;2.20;2.10;;;10.50;99.90;;;;;;473415;250;29158;-76
2021/10/05 04:31:42;;;;;;;2.17;1.97;;;10.50;99.90;;;;;;473430;250;27952;-76
2021/10/05 04:33:43;;;;;;;2.10;2.00;;;10.60;99.90;;;;;;473422;250;28089;-76
2021/10/05 04:35:44;;;;;;;1.70;1.60;;;10.60;99.90;;;;;;473412;251;27692;-76
2021/10/05 04:37:46;;;;;;;1.73;1.63;;;10.60;99.90;;;;;;473396;251;27745;-76
2021/10/05 04:39:47;;;;;;;1.70;1.60;;;10.60;99.90;;;;;;473439;250;28419;-76
2021/10/05 04:41:48;;;;;;;2.00;1.90;;;10.60;99.90;;;;;;473608;250;27640;-76
2021/10/05 04:43:49;;;;;;;2.03;1.83;;;10.60;99.90;;;;;;473559;250;28048;-76
2021/10/05 04:45:51;;;;;;;1.70;1.60;;;10.60;99.90;;;;;;473646;251;27878;-76
2021/10/05 04:47:52;;;;;;;1.70;1.60;;;10.60;99.90;;;;;;473512;251;27753;-76
2021/10/05 04:49:53;;;;;;;1.70;1.60;;;10.60;99.90;;;;;;473478;251;28117;-76
2021/10/05 04:51:55;;;;;;;1.77;1.67;;;10.60;99.90;;;;;;473452;250;28414;-76
2021/10/05 04:53:56;;;;;;;1.70;1.60;;;10.60;99.90;;;;;;473341;250;28672;-76
2021/10/05 04:55:57;;;;;;;1.93;1.47;;;10.60;99.90;;;;;;473394;250;28081;-76
2021/10/05 04:57:58;;;;;;;1.70;1.60;;;10.60;99.90;;;;;;473341;251;28004;-76
2021/10/05 05:00:00;;;;;;;1.37;1.30;;;10.70;99.90;;;;;;473324;250;28106;-76
2021/10/05 05:02:01;;;;;;;1.73;1.63;;;10.70;99.90;;;;;;473406;250;27950;-76
2021/10/05 05:04:02;;;;;;;1.90;1.80;;;10.60;99.90;;;;;;473338;250;28146;-76
2021/10/05 05:06:03;;;;;;;1.60;1.50;;;10.70;99.90;;;;;;473354;250;28084;-76
2021/10/05 05:08:05;;;;;;;1.87;1.77;;;10.70;99.90;;;;;;473372;250;28009;-76
2021/10/05 05:10:06;;;;;;;2.10;2.00;;;10.70;99.90;;;;;;473334;250;27734;-76
2021/10/05 05:12:07;;;;;;;3.30;1.50;;;10.70;99.90;;;;;;473349;250;27951;-76
2021/10/05 05:14:10;;;;;;;1.70;1.60;;;10.60;99.90;;;;;;473323;251;28330;-76
2021/10/05 05:16:10;;;;;;;1.90;1.80;;;10.50;99.90;;;;;;473285;251;28492;-76
2021/10/05 05:18:11;;;;;;;1.90;1.80;;;10.50;99.90;;;;;;473357;250;28397;-75
2021/10/05 05:20:12;;;;;;;1.67;1.50;;;10.60;99.90;;;;;;473357;250;28016;-76
2021/10/05 05:22:13;;;;;;;1.80;1.70;;;10.60;99.90;;;;;;473344;250;27904;-76
2021/10/05 05:24:15;;;;;;;1.70;1.60;;;10.60;99.90;;;;;;473346;250;28060;-76
2021/10/05 05:26:16;;;;;;;1.83;1.73;;;10.60;99.90;;;;;;473371;250;28194;-76
2021/10/05 05:28:17;;;;;;;2.00;1.90;;;10.60;99.90;;;;;;473351;250;27958;-76
2021/10/05 05:30:18;;;;;;;2.03;1.93;;;10.60;99.90;;;;;;473336;251;27994;-75
2021/10/05 05:32:20;;;;;;;2.07;1.97;;;10.70;99.90;;;;;;473320;251;28063;-76
2021/10/05 05:34:21;;;;;;;2.20;2.10;;;10.60;99.90;;;;;;473330;250;28134;-76
2021/10/05 05:36:22;;;;;;;2.30;2.20;;;10.60;99.90;;;;;;473315;250;27834;-76
2021/10/05 05:38:24;;;;;;;2.20;2.10;;;10.60;99.90;;;;;;473345;250;28349;-76
2021/10/05 05:40:25;;;;;;;2.47;2.30;;;10.60;99.90;;;;;;473293;251;28552;-76
2021/10/05 05:42:26;;;;;;;1.83;1.73;;;10.60;99.90;;;;;;472971;251;28350;-76
2021/10/05 05:44:27;;;;;;;1.97;1.87;;;10.60;99.90;;;;;;473366;251;27651;-76
2021/10/05 05:46:28;;;;;;;1.90;1.80;;;10.60;99.90;;;;;;473345;250;27833;-77
2021/10/05 05:48:30;;;;;;;1.90;1.80;;;10.60;99.90;;;;;;473367;251;27903;-75
2021/10/05 05:50:31;;;;;;;2.47;2.30;;;10.60;99.90;;;;;;473335;250;27967;-76
2021/10/05 05:52:32;;;;;;;1.80;1.70;;;10.60;99.90;;;;;;473362;250;27965;-76
2021/10/05 05:54:33;;;;;;;1.90;1.80;;;10.60;99.90;;;;;;473359;250;27871;-76
2021/10/05 05:56:35;;;;;;;1.73;1.63;;;10.60;99.90;;;;;;473343;250;28296;-76
2021/10/05 05:58:36;;;;;;;17.80;3.60;;;10.60;99.90;;;;;;473355;251;27860;-76
2021/10/05 06:00:37;;;;;;;15.50;4.10;;;10.70;99.90;;;;;;473351;250;27896;-76
2021/10/05 06:02:38;;;;;;;4.60;2.70;;;10.70;99.90;;;;;;473301;251;28286;-76
2021/10/05 06:04:40;;;;;;;4.23;2.80;;;10.70;99.90;;;;;;473328;251;28596;-76
2021/10/05 06:06:41;;;;;;;4.30;2.57;;;10.70;99.90;;;;;;473329;250;28446;-76
2021/10/05 06:08:42;;;;;;;4.17;2.50;;;10.80;99.90;;;;;;473351;250;28088;-76
2021/10/05 06:10:43;;;;;;;2.83;2.33;;;10.80;99.90;;;;;;473293;250;28098;-76
2021/10/05 06:12:45;;;;;;;4.83;2.83;;;10.80;99.90;;;;;;473265;250;27945;-76
2021/10/05 06:14:46;;;;;;;6.50;2.33;;;10.90;99.90;;;;;;473286;251;28043;-76
2021/10/05 06:16:47;;;;;;;2.27;2.17;;;10.90;99.90;;;;;;473241;250;27764;-76
2021/10/05 06:18:48;;;;;;;2.33;2.20;;;10.90;99.90;;;;;;473320;250;28073;-76
2021/10/05 06:20:50;;;;;;;2.40;2.20;;;10.90;99.90;;;;;;473322;251;28031;-76
2021/10/05 06:22:51;;;;;;;2.90;2.70;;;10.90;99.90;;;;;;473334;250;27768;-76
2021/10/05 06:24:52;;;;;;;2.80;2.60;;;10.90;99.90;;;;;;473318;250;28555;-76
2021/10/05 06:26:53;;;;;;;3.07;2.77;;;11.00;99.90;;;;;;473343;250;28560;-76
2021/10/05 06:28:55;;;;;;;2.77;2.57;;;11.00;99.90;;;;;;473290;251;28504;-76
2021/10/05 06:30:56;;;;;;;2.90;2.70;;;11.10;99.90;;;;;;473342;250;28566;-76
2021/10/05 06:32:57;;;;;;;2.27;2.17;;;11.10;99.90;;;;;;473338;250;28019;-75
2021/10/05 06:34:58;;;;;;;3.43;3.13;;;11.20;99.90;;;;;;473346;250;28098;-76
2021/10/05 06:37:00;;;;;;;3.10;2.80;;;11.20;99.90;;;;;;473373;250;28028;-76
2021/10/05 06:39:01;;;;;;;3.53;3.23;;;11.30;99.90;;;;;;473334;250;27962;-75
2021/10/05 06:41:02;;;;;;;3.20;2.90;;;11.30;99.90;;;;;;473329;250;28123;-75
2021/10/05 06:43:03;;;;;;;3.40;3.10;;;11.40;99.90;;;;;;473320;250;28222;-76
2021/10/05 06:45:05;;;;;;;3.10;2.90;;;11.40;99.90;;;;;;473338;250;28055;-76
2021/10/05 06:47:06;;;;;;;3.80;3.50;;;11.40;99.90;;;;;;473316;250;28310;-76
2021/10/05 06:49:07;;;;;;;3.50;3.20;;;11.50;99.90;;;;;;470757;250;28805;-76
2021/10/05 06:51:08;;;;;;;3.27;3.07;;;11.50;99.90;;;;;;468656;254;28699;-76
2021/10/05 06:53:15;;;;;;;3.50;3.30;;;11.50;99.90;;;;;;468692;254;28744;-76
2021/10/05 06:55:11;;;;;;;3.27;3.07;;;11.60;99.90;;;;;;468313;254;28024;-76
2021/10/05 06:57:12;;;;;;;3.30;3.10;;;11.60;99.90;;;;;;468627;254;28257;-76
2021/10/05 06:59:13;;;;;;;3.10;2.90;;;11.60;99.90;;;;;;468685;254;28247;-76
2021/10/05 07:01:15;;;;;;;3.70;3.40;;;11.60;99.90;;;;;;468608;254;28382;-77
2021/10/05 07:03:16;;;;;;;3.70;3.40;;;11.70;99.90;;;;;;490122;236;28185;-76
2021/10/05 07:05:17;;;;;;;2.93;2.73;;;11.60;99.90;;;;;;494680;240;28359;-74
2021/10/05 07:07:18;;;;;;;3.40;3.10;;;11.60;99.90;;;;;;494399;240;28977;-76
2021/10/05 07:09:20;;;;;;;3.27;3.07;;;11.60;99.90;;;;;;494348;240;29632;-77
2021/10/05 07:11:21;;;;;;;3.10;2.90;;;11.60;99.90;;;;;;499341;237;28589;-77
2021/10/05 07:13:22;;;;;;;3.30;3.10;;;11.60;99.90;;;;;;500712;237;28171;-77
2021/10/05 07:15:23;;;;;;;3.00;2.80;;;11.60;99.90;;;;;;500711;237;28188;-76
2021/10/05 07:17:25;;;;;;;2.93;2.73;;;11.50;99.90;;;;;;500706;237;28178;-77
2021/10/05 07:19:26;;;;;;;3.00;2.73;;;11.60;99.90;;;;;;500687;237;28261;-76
2021/10/05 07:21:27;;;;;;;2.90;2.70;;;11.60;99.90;;;;;;500728;237;28285;-77
2021/10/05 07:23:28;;;;;;;2.57;2.37;;;11.60;99.90;;;;;;500721;237;28198;-77
2021/10/05 07:25:30;;;;;;;3.30;3.00;;;11.60;99.90;;;;;;500706;237;27883;-77
2021/10/05 07:27:31;;;;;;;3.30;3.00;;;11.60;99.90;;;;;;500706;237;27974;-77
2021/10/05 07:29:32;;;;;;;2.83;2.63;;;11.60;99.90;;;;;;500621;237;28396;-76
2021/10/05 07:31:34;;;;;;;2.70;2.50;;;11.60;99.90;;;;;;500723;237;28493;-77
2021/10/05 07:33:35;;;;;;;2.80;2.60;;;11.70;99.90;;;;;;500727;237;28529;-77
2021/10/05 07:35:36;;;;;;;2.67;2.47;;;11.70;99.90;;;;;;500679;237;29514;-77
2021/10/05 07:37:37;;;;;;;3.20;2.20;;;11.80;99.90;;;;;;500697;237;28466;-76
2021/10/05 07:39:38;;;;;;;2.53;2.37;;;11.90;99.90;;;;;;500728;237;28204;-76
2021/10/05 07:41:43;;;;;;;2.40;2.20;;;11.90;99.90;;;;;;500687;237;28109;-76
2021/10/05 07:43:41;;;;;;;2.27;2.17;;;12.00;99.90;;;;;;500703;237;28156;-77
2021/10/05 07:45:42;;;;;;;2.40;2.23;;;12.10;99.90;;;;;;500691;237;28273;-76
2021/10/05 07:47:43;;;;;;;2.30;2.20;;;12.10;99.90;;;;;;500513;237;28569;-77
2021/10/05 07:49:45;;;;;;;2.33;2.23;;;12.10;99.90;;;;;;500392;237;28587;-77
2021/10/05 07:51:46;;;;;;;2.33;2.23;;;12.20;99.90;;;;;;500090;237;28899;-77
2021/10/05 07:53:47;;;;;;;2.90;2.70;;;12.20;99.90;;;;;;500243;237;29222;-77
2021/10/05 07:55:48;;;;;;;3.13;2.83;;;12.10;99.90;;;;;;500597;237;28955;-77
2021/10/05 07:57:50;;;;;;;3.90;2.13;;;12.20;99.90;;;;;;500763;237;28691;-77
2021/10/05 07:59:52;;;;;;;2.70;2.50;;;12.20;99.90;;;;;;500773;237;29807;-77
2021/10/05 08:01:54;;;;;;;2.30;2.20;;;12.20;99.90;;;;;;498948;237;28115;-77
2021/10/05 08:03:53;;;;;;;2.20;2.10;;;12.20;99.90;;;;;;498720;238;28154;-77
2021/10/05 08:05:55;;;;;;;1.93;1.83;;;12.20;99.90;;;;;;498727;238;28404;-77
2021/10/05 08:07:56;;;;;;;2.00;1.90;;;12.30;99.90;;;;;;498714;238;28105;-76
2021/10/05 08:09:57;;;;;;;2.00;1.90;;;12.30;99.90;;;;;;498752;238;28077;-76
2021/10/05 08:11:58;;;;;;;2.10;2.00;;;12.30;99.90;;;;;;498776;238;28130;-76
2021/10/05 08:14:00;;;;;;;2.00;1.90;;;12.30;99.90;;;;;;498751;237;28803;-76
2021/10/05 08:16:01;;;;;;;2.53;2.43;;;12.30;99.90;;;;;;498725;238;28619;-76
2021/10/05 08:18:02;;;;;;;2.17;2.07;;;12.30;99.90;;;;;;498740;238;29022;-76
2021/10/05 08:20:04;;;;;;;2.13;2.03;;;12.30;99.90;;;;;;498836;238;28748;-76
2021/10/05 08:22:05;;;;;;;1.93;1.83;;;12.30;99.90;;;;;;498799;238;28798;-76
2021/10/05 08:24:06;;;;;;;2.20;2.07;;;12.30;99.90;;;;;;498854;238;28718;-76
2021/10/05 08:26:07;;;;;;;2.30;2.20;;;12.30;99.90;;;;;;498871;238;28594;-76
2021/10/05 08:28:08;;;;;;;2.30;2.13;;;12.20;99.90;;;;;;498722;238;28389;-76
2021/10/05 08:30:10;;;;;;;2.40;2.27;;;12.20;99.90;;;;;;498820;237;28900;-76
2021/10/05 08:32:11;;;;;;;2.17;2.07;;;12.30;99.90;;;;;;498768;238;28298;-77
2021/10/05 08:34:12;;;;;;;2.07;1.97;;;12.30;99.90;;;;;;498724;238;28541;-76
2021/10/05 08:36:14;;;;;;;2.10;2.00;;;12.40;99.90;;;;;;498779;238;28605;-76
2021/10/05 08:38:15;;;;;;;2.30;2.17;;;12.40;99.90;;;;;;498763;238;28802;-76
2021/10/05 08:40:18;;;;;;;1.93;1.83;;;;;;;;;;498716;238;28532;-77
2021/10/05 08:42:18;;;;;;;1.77;1.67;;;12.50;99.90;;;;;;491120;238;27242;-76
2021/10/05 08:44:22;;;;;;;1.37;1.33;;;;;;;;;;477632;243;28466;-76
2021/10/05 08:46:22;;;;;;;1.90;1.80;;;12.60;99.90;;;;;;478654;248;27693;-75
2021/10/05 08:48:23;;;;;;;1.80;1.70;;;12.80;99.90;;;;;;478178;248;28381;-75
2021/10/05 08:50:26;;;;;;;1.70;1.60;;;12.80;99.90;;;;;;478172;248;28251;-75
2021/10/05 08:52:26;;;;;;;1.70;1.60;;;12.90;99.90;;;;;;478400;248;28917;-76
2021/10/05 08:54:28;;;;;;;1.50;1.40;;;12.90;99.90;;;;;;478561;248;28373;-77
2021/10/05 08:56:28;;;;;;;1.93;1.83;;;12.90;99.90;;;;;;478478;248;28920;-77
2021/10/05 08:58:30;;;;;;;1.80;1.70;;;12.80;99.90;;;;;;478552;248;28759;-77
2021/10/05 09:00:31;;;;;;;1.80;1.70;;;12.90;99.90;;;;;;478535;248;28421;-77
2021/10/05 09:02:32;;;;;;;1.97;1.87;;;12.90;99.90;;;;;;478497;248;28406;-77
2021/10/05 09:04:33;;;;;;;1.80;1.70;;;12.90;99.90;;;;;;478552;248;29431;-77
2021/10/05 09:06:39;;;;;;;1.83;1.73;;;12.90;99.90;;;;;;478518;248;28740;-78
2021/10/05 09:08:39;;;;;;;1.90;1.80;;;12.80;99.90;;;;;;478439;248;28440;-74
2021/10/05 09:10:40;;;;;;;1.90;1.80;;;12.90;99.90;;;;;;478541;248;28274;-77
2021/10/05 09:12:41;;;;;;;1.57;1.47;;;12.90;99.90;;;;;;478572;247;28287;-76
2021/10/05 09:14:43;;;;;;;2.10;1.63;;;13.00;99.90;;;;;;478545;248;28272;-76
2021/10/05 09:16:44;;;;;;;1.60;1.50;;;13.00;99.90;;;;;;478536;248;28258;-77
2021/10/05 09:18:45;;;;;;;1.90;1.80;;;13.00;99.90;;;;;;478558;248;28223;-76
2021/10/05 09:20:46;;;;;;;1.80;1.70;;;13.00;99.90;;;;;;478568;248;28445;-77
2021/10/05 09:22:48;;;;;;;1.93;1.83;;;13.00;99.90;;;;;;478560;248;28334;-76
2021/10/05 09:24:49;;;;;;;1.60;1.40;;;13.10;99.90;;;;;;478536;248;28958;-77
2021/10/05 09:26:55;;;;;;;1.50;1.40;;;;;;;;;;478544;248;29806;-76
2021/10/05 09:28:56;;;;;;;1.50;1.40;;;13.20;99.90;;;;;;478564;248;26491;-76
2021/10/05 09:30:57;;;;;;;1.47;1.47;;;13.30;99.90;;;;;;478534;248;28378;-76
2021/10/05 09:32:58;;;;;;;1.60;1.50;;;13.20;99.90;;;;;;478538;248;28299;-77
2021/10/05 09:34:59;;;;;;;1.43;1.40;;;13.20;99.90;;;;;;478490;248;28392;-77
2021/10/05 09:37:01;;;;;;;2.03;1.60;;;13.30;99.90;;;;;;478532;248;28592;-76
2021/10/05 09:39:03;;;;;;;1.50;1.40;;;;;;;;;;478553;248;28409;-77
2021/10/05 09:41:04;;;;;;;1.80;1.70;;;13.40;99.90;;;;;;478561;248;26710;-77
2021/10/05 09:43:05;;;;;;;1.53;1.43;;;13.50;99.90;;;;;;478508;248;28332;-77
2021/10/05 09:45:07;;;;;;;1.63;1.50;;;13.50;99.90;;;;;;478539;248;28470;-76
2021/10/05 09:47:08;;;;;;;1.60;1.50;;;13.50;99.90;;;;;;478529;248;28244;-77
2021/10/05 09:49:10;;;;;;;1.43;1.43;;;13.60;99.90;;;;;;478537;248;28428;-76
2021/10/05 09:51:10;;;;;;;1.73;1.40;;;13.60;99.90;;;;;;478474;248;28584;-76
2021/10/05 09:53:12;;;;;;;1.57;1.47;;;13.50;99.90;;;;;;478559;248;28359;-76
2021/10/05 09:55:13;;;;;;;1.43;1.33;;;13.30;99.90;;;;;;478574;248;28346;-76
2021/10/05 09:57:14;;;;;;;1.57;1.50;;;13.30;99.90;;;;;;478519;248;28926;-77
2021/10/05 09:59:15;;;;;;;1.60;1.50;;;13.30;99.90;;;;;;478529;248;28977;-77
2021/10/05 10:01:17;;;;;;;1.73;1.63;;;13.30;99.90;;;;;;478574;248;29193;-76
2021/10/05 10:03:18;;;;;;;1.70;1.53;;;13.20;99.90;;;;;;478543;248;28543;-77
2021/10/05 10:05:19;;;;;;;1.60;1.50;;;13.30;99.90;;;;;;478525;248;28470;-77
2021/10/05 10:07:20;;;;;;;1.63;1.53;;;13.30;99.90;;;;;;478522;248;28236;-77
2021/10/05 10:09:22;;;;;;;2.00;1.50;;;13.30;99.90;;;;;;478585;248;28495;-77
2021/10/05 10:11:25;;;;;;;1.50;1.40;;;13.40;99.90;;;;;;478544;248;28719;-76
2021/10/05 10:13:24;;;;;;;1.50;1.40;;;13.40;99.90;;;;;;478418;248;28318;-76
2021/10/05 10:15:25;;;;;;;1.40;1.30;;;13.60;99.90;;;;;;478561;247;28278;-76
2021/10/05 10:17:28;;;;;;;1.40;1.30;;;13.70;99.90;;;;;;478541;248;28246;-76
2021/10/05 10:19:29;;;;;;;2.77;1.80;;;13.80;99.90;;;;;;478492;248;28550;-76
2021/10/05 10:21:29;;;;;;;1.70;1.60;;;13.80;99.90;;;;;;478513;248;29087;-77
2021/10/05 10:23:31;;;;;;;1.90;1.77;;;13.80;99.90;;;;;;478535;248;29518;-77
2021/10/05 10:25:32;;;;;;;1.60;1.50;;;13.90;99.90;;;;;;478531;248;29134;-77
2021/10/05 10:27:33;;;;;;;1.73;1.63;;;13.90;99.90;;;;;;478560;248;28467;-76
2021/10/05 10:29:34;;;;;;;1.67;1.57;;;13.90;99.90;;;;;;478495;248;28525;-77
2021/10/05 10:31:39;;;;;;;1.50;1.40;;;14.00;99.90;;;;;;478548;248;28611;-77
2021/10/05 10:33:37;;;;;;;3.00;1.73;;;13.90;99.90;;;;;;478326;248;28552;-77